createdAt,value
2022-08-11T00:00:02.092Z,25.90
2022-08-11T00:05:15.115Z,25.70
2022-08-11T00:10:23.325Z,25.50
2022-08-11T00:15:29.468Z,25.40
2022-08-11T00:20:35.006Z,25.50
2022-08-11T00:25:46.392Z,25.50
2022-08-11T00:30:50.485Z,25.50
2022-08-11T00:35:59.699Z,25.50
2022-08-11T00:41:14.870Z,25.40
2022-08-11T00:46:26.692Z,25.40
2022-08-11T00:52:05.159Z,25.40
2022-08-11T00:57:37.273Z,25.10
2022-08-11T01:03:15.038Z,25.20
2022-08-11T01:08:21.018Z,25.20
2022-08-11T01:14:15.137Z,25.10
2022-08-11T01:20:45.933Z,25.00
2022-08-11T01:25:57.101Z,25.00
2022-08-11T01:31:23.763Z,25.00
2022-08-11T01:36:57.274Z,24.80
2022-08-11T01:42:50.019Z,24.80
2022-08-11T01:48:22.651Z,24.60
2022-08-11T01:53:37.264Z,24.60
2022-08-11T01:59:26.039Z,24.60
2022-08-11T02:04:42.237Z,24.10
2022-08-11T02:09:56.499Z,23.90
2022-08-11T02:15:26.305Z,24.10
2022-08-11T02:21:07.077Z,24.10
2022-08-11T02:26:11.921Z,24.10
2022-08-11T02:32:24.342Z,24.10
2022-08-11T02:37:29.001Z,24.10
2022-08-11T02:42:47.315Z,24.00
2022-08-11T02:48:22.070Z,24.00
2022-08-11T02:53:43.503Z,23.90
2022-08-11T02:59:28.545Z,23.90
2022-08-11T03:04:57.498Z,23.60
2022-08-11T03:10:21.412Z,23.70
2022-08-11T03:16:06.641Z,23.30
2022-08-11T03:21:09.276Z,23.30
2022-08-11T03:26:43.163Z,23.40
2022-08-11T03:32:10.113Z,23.40
2022-08-11T03:37:50.502Z,23.30
2022-08-11T03:43:07.985Z,23.30
2022-08-11T03:48:28.102Z,23.20
2022-08-11T03:54:01.973Z,23.10
2022-08-11T03:59:21.024Z,23.00
2022-08-11T04:04:51.361Z,23.00
2022-08-11T04:10:28.234Z,22.80
2022-08-11T04:16:11.304Z,22.50
2022-08-11T04:21:42.433Z,22.30
2022-08-11T04:27:00.004Z,22.20
2022-08-11T04:32:29.911Z,22.10
2022-08-11T04:37:59.092Z,22.00
2022-08-11T04:43:22.853Z,22.70
2022-08-11T04:49:06.155Z,23.40
2022-08-11T04:55:01.642Z,23.90
2022-08-11T05:00:29.115Z,24.10
2022-08-11T05:06:02.411Z,24.40
2022-08-11T05:11:36.144Z,24.40
2022-08-11T05:17:01.488Z,24.50
2022-08-11T05:22:30.507Z,25.70
2022-08-11T05:28:02.788Z,25.80
2022-08-11T05:33:29.306Z,26.20
2022-08-11T05:38:54.873Z,25.50
2022-08-11T05:44:22.651Z,25.50
2022-08-11T05:49:49.070Z,25.20
2022-08-11T05:55:10.820Z,24.30
2022-08-11T06:00:15.212Z,23.50
2022-08-11T06:05:43.686Z,23.30
2022-08-11T06:10:47.643Z,22.40
2022-08-11T06:15:52.528Z,22.20
2022-08-11T06:20:57.940Z,22.20
2022-08-11T06:26:01.700Z,22.20
2022-08-11T06:31:14.185Z,22.30
2022-08-11T06:36:25.892Z,22.20
2022-08-11T06:41:44.503Z,22.50
2022-08-11T06:46:51.115Z,22.40
2022-08-11T06:52:01.644Z,22.90
2022-08-11T06:57:29.837Z,22.90
2022-08-11T07:02:53.499Z,23.20
2022-08-11T07:08:33.959Z,23.40
2022-08-11T07:13:58.444Z,23.30
2022-08-11T07:19:26.466Z,23.30
2022-08-11T07:25:01.439Z,24.10
2022-08-11T07:30:09.267Z,24.00
2022-08-11T07:35:16.416Z,24.20
2022-08-11T07:40:23.971Z,24.50
2022-08-11T07:45:46.064Z,24.10
2022-08-11T07:51:07.835Z,24.50
2022-08-11T07:56:11.167Z,25.00
2022-08-11T08:01:41.320Z,25.10
2022-08-11T08:07:03.947Z,25.40
2022-08-11T08:12:27.006Z,25.20
2022-08-11T08:18:20.584Z,25.50
2022-08-11T08:23:14.616Z,25.10
2022-08-11T08:28:19.725Z,25.10
2022-08-11T08:33:42.150Z,25.30
2022-08-11T08:38:51.173Z,25.70
2022-08-11T08:44:14.944Z,25.90
2022-08-11T08:49:25.444Z,26.20
2022-08-11T08:54:37.092Z,26.80
2022-08-11T08:59:48.865Z,26.60
2022-08-11T09:04:52.768Z,26.70
2022-08-11T09:09:59.071Z,27.00
2022-08-11T09:15:05.452Z,27.10
2022-08-11T09:20:25.569Z,27.40
2022-08-11T09:25:50.205Z,27.80
2022-08-11T09:30:53.726Z,28.10
2022-08-11T09:35:57.308Z,28.30
2022-08-11T09:41:02.907Z,28.40
2022-08-11T09:46:07.065Z,29.10
2022-08-11T09:51:10.652Z,29.20
2022-08-11T09:56:37.662Z,28.90
2022-08-11T10:01:47.309Z,29.10
2022-08-11T10:07:04.191Z,29.10
2022-08-11T10:12:33.186Z,29.70
2022-08-11T10:17:39.409Z,29.70
2022-08-11T10:23:01.598Z,29.30
2022-08-11T10:28:28.982Z,29.70
2022-08-11T10:33:57.499Z,29.70
2022-08-11T10:39:05.191Z,30.70
2022-08-11T10:44:10.477Z,30.00
2022-08-11T10:49:13.408Z,30.50
2022-08-11T10:54:34.990Z,30.70
2022-08-11T10:59:38.015Z,30.50
2022-08-11T11:04:51.580Z,30.30
2022-08-11T11:10:02.414Z,30.40
2022-08-11T11:15:25.541Z,30.20
2022-08-11T11:20:37.833Z,31.00
2022-08-11T11:26:06.678Z,30.60
2022-08-11T11:31:44.628Z,30.60
2022-08-11T11:36:58.631Z,30.80
2022-08-11T11:42:04.888Z,31.30
2022-08-11T11:47:08.277Z,31.30
2022-08-11T11:52:21.921Z,32.20
2022-08-11T11:58:02.752Z,31.30
2022-08-11T12:03:11.485Z,30.80
2022-08-11T12:08:16.501Z,30.70
2022-08-11T12:13:38.371Z,30.50
2022-08-11T12:18:43.245Z,30.60
2022-08-11T12:24:07.636Z,30.90
2022-08-11T12:29:14.837Z,31.20
2022-08-11T12:34:18.264Z,31.20
2022-08-11T12:40:15.706Z,30.80
2022-08-11T12:45:28.124Z,30.50
2022-08-11T12:50:52.908Z,31.10
2022-08-11T12:56:16.334Z,30.70
2022-08-11T13:01:38.095Z,30.80
2022-08-11T13:06:42.435Z,30.80
2022-08-11T13:12:04.223Z,31.00
2022-08-11T13:17:21.669Z,30.60
2022-08-11T13:22:47.042Z,30.80
2022-08-11T13:32:59.682Z,31.70
2022-08-11T13:38:17.976Z,31.50
2022-08-11T13:43:23.452Z,31.40
2022-08-11T13:48:28.376Z,31.10
2022-08-11T13:53:32.570Z,31.50
2022-08-11T13:58:40.013Z,31.40
2022-08-11T14:04:29.734Z,32.00
2022-08-11T14:09:09.780Z,31.30
2022-08-11T14:14:18.907Z,31.00
2022-08-11T14:19:24.476Z,31.20
2022-08-11T14:24:27.575Z,31.40
2022-08-11T14:29:32.516Z,31.40
2022-08-11T14:34:50.165Z,31.10
2022-08-11T14:40:03.877Z,31.20
2022-08-11T14:45:27.671Z,31.00
2022-08-11T14:50:50.604Z,31.20
2022-08-11T14:56:12.972Z,30.90
2022-08-11T15:01:33.811Z,31.00
2022-08-11T15:06:37.295Z,31.20
2022-08-11T15:11:59.064Z,31.20
2022-08-11T15:17:07.809Z,31.20
2022-08-11T15:22:29.252Z,31.20
2022-08-11T15:27:53.143Z,30.80
2022-08-11T15:33:15.133Z,31.00
2022-08-11T15:38:19.799Z,30.90
2022-08-11T15:43:46.399Z,31.10
2022-08-11T15:48:57.787Z,30.90
2022-08-11T15:54:09.270Z,31.10
2022-08-11T15:59:42.134Z,31.10
2022-08-11T16:04:47.437Z,30.90
2022-08-11T16:10:02.985Z,31.00
2022-08-11T16:15:29.037Z,30.90
2022-08-11T16:20:32.611Z,31.00
2022-08-11T16:27:03.825Z,31.00
2022-08-11T16:30:59.139Z,30.70
2022-08-11T16:36:21.512Z,30.40
2022-08-11T16:41:44.981Z,30.30
2022-08-11T16:47:00.465Z,30.50
2022-08-11T16:52:05.314Z,30.50
2022-08-11T16:57:42.682Z,30.40
2022-08-11T17:03:07.999Z,30.60
2022-08-11T17:08:29.396Z,30.60
2022-08-11T17:13:46.567Z,30.40
2022-08-11T17:19:15.145Z,30.40
2022-08-11T17:24:17.855Z,30.40
2022-08-11T17:29:24.509Z,30.60
2022-08-11T17:34:46.535Z,30.40
2022-08-11T17:39:50.640Z,30.40
2022-08-11T17:45:13.350Z,30.50
2022-08-11T17:50:18.217Z,30.60
2022-08-11T17:55:55.027Z,30.80
2022-08-11T18:01:02.015Z,30.90
2022-08-11T18:06:13.946Z,30.70
2022-08-11T18:12:11.239Z,30.70
2022-08-11T18:17:16.780Z,30.30
2022-08-11T18:22:43.195Z,30.00
2022-08-11T18:28:06.987Z,29.60
2022-08-11T18:34:03.462Z,29.80
2022-08-11T18:39:11.348Z,29.40
2022-08-11T18:44:34.345Z,29.30
2022-08-11T18:50:03.606Z,29.20
2022-08-11T18:55:35.814Z,28.90
2022-08-11T19:00:59.033Z,28.80
2022-08-11T19:06:39.504Z,28.60
2022-08-11T19:12:03.428Z,28.60
2022-08-11T19:17:45.126Z,28.30
2022-08-11T19:23:08.022Z,28.40
2022-08-11T19:28:30.914Z,28.50
2022-08-11T19:34:00.340Z,28.30
2022-08-11T19:39:32.663Z,28.30
2022-08-11T19:44:54.187Z,28.30
2022-08-11T19:50:20.169Z,28.00
2022-08-11T19:55:46.699Z,28.00
2022-08-11T20:01:08.070Z,27.80
2022-08-11T20:06:30.302Z,28.00
2022-08-11T20:12:01.271Z,27.60
2022-08-11T20:17:23.065Z,27.50
2022-08-11T20:22:46.461Z,27.30
2022-08-11T20:28:08.450Z,27.40
2022-08-11T20:33:30.001Z,27.20
2022-08-11T20:38:51.827Z,27.20
2022-08-11T20:44:15.142Z,27.20
2022-08-11T20:49:45.039Z,27.40
2022-08-11T20:55:19.077Z,28.00
2022-08-11T21:00:47.313Z,28.10
2022-08-11T21:06:11.093Z,28.00
2022-08-11T21:11:34.552Z,28.00
2022-08-11T21:16:56.516Z,27.60
2022-08-11T21:22:21.356Z,27.40
2022-08-11T21:27:52.086Z,27.50
2022-08-11T21:33:13.665Z,27.50
2022-08-11T21:38:36.226Z,27.60
2022-08-11T21:43:59.004Z,27.60
2022-08-11T21:49:20.785Z,27.80
2022-08-11T21:54:43.819Z,27.80
2022-08-11T22:00:13.831Z,27.80
2022-08-11T22:05:36.025Z,27.90
2022-08-11T22:10:57.651Z,27.80
2022-08-11T22:16:19.147Z,27.70
2022-08-11T22:22:01.244Z,27.80
2022-08-11T22:27:22.886Z,27.80
2022-08-11T22:32:44.816Z,27.80
2022-08-11T22:38:06.646Z,27.80
2022-08-11T22:43:27.565Z,27.60
2022-08-11T22:48:49.970Z,27.60
2022-08-11T22:54:12.797Z,27.50
2022-08-11T22:59:35.632Z,27.40
2022-08-11T23:04:57.646Z,27.40
2022-08-11T23:10:18.987Z,27.20
2022-08-11T23:15:41.098Z,27.10
2022-08-11T23:21:04.182Z,27.00
2022-08-11T23:26:26.401Z,26.90
2022-08-11T23:31:53.470Z,27.00
2022-08-11T23:37:14.662Z,27.00
2022-08-11T23:42:36.237Z,26.70
2022-08-11T23:47:59.899Z,26.70
2022-08-11T23:53:21.577Z,26.70
2022-08-11T23:58:42.550Z,26.60
